createdAt,value
2022-11-29T00:02:12.000Z,168.1
2022-11-29T00:04:57.000Z,105.3
2022-11-29T00:07:41.000Z,101.1
2022-11-29T00:10:26.000Z,136.8
2022-11-29T00:13:11.000Z,113.7
2022-11-29T00:16:12.000Z,101.6
2022-11-29T00:18:56.000Z,128.3
2022-11-29T00:20:14.000Z,91.1
2022-11-29T00:21:41.000Z,106.3
2022-11-29T00:24:26.000Z,106.8
2022-11-29T00:27:10.000Z,95.1
2022-11-29T00:29:55.000Z,103.5
2022-11-29T00:32:40.000Z,84
2022-11-29T00:35:24.000Z,235.1
2022-11-29T00:38:09.000Z,106.7
2022-11-29T00:40:54.000Z,100.8
2022-11-29T00:43:38.000Z,107.9
2022-11-29T00:46:23.000Z,298.4
2022-11-29T00:47:41.000Z,85
2022-11-29T00:49:07.000Z,166.2
2022-11-29T00:51:52.000Z,95.9
2022-11-29T00:54:37.000Z,219.2
2022-11-29T00:57:21.000Z,171
2022-11-29T01:00:06.000Z,139.6
2022-11-29T01:02:51.000Z,205.2
2022-11-29T01:05:35.000Z,118.7
2022-11-29T01:08:20.000Z,121.2
2022-11-29T01:11:05.000Z,187.7
2022-11-29T01:13:49.000Z,130
2022-11-29T01:15:07.000Z,131.6
2022-11-29T01:16:34.000Z,172.1
2022-11-29T01:19:19.000Z,202.8
2022-11-29T01:22:03.000Z,87
2022-11-29T01:24:48.000Z,136.1
2022-11-29T01:27:32.000Z,114.7
2022-11-29T01:30:17.000Z,120.9
2022-11-29T01:33:02.000Z,98.2
2022-11-29T01:35:46.000Z,98.5
2022-11-29T01:38:31.000Z,103.7
2022-11-29T01:41:16.000Z,76.7
2022-11-29T01:42:33.000Z,73.5
2022-11-29T01:44:00.000Z,81.3
2022-11-29T01:46:45.000Z,83
2022-11-29T01:49:30.000Z,113.1
2022-11-29T01:52:14.000Z,109.1
2022-11-29T01:54:59.000Z,122.7
2022-11-29T01:57:43.000Z,85
2022-11-29T02:00:28.000Z,126.7
2022-11-29T02:03:13.000Z,106.9
2022-11-29T02:05:57.000Z,98.9
2022-11-29T02:08:42.000Z,115.9
2022-11-29T02:10:00.000Z,72.4
2022-11-29T02:11:27.000Z,75.9
2022-11-29T02:14:11.000Z,72.3
2022-11-29T02:16:56.000Z,96.9
2022-11-29T02:19:41.000Z,103.9
2022-11-29T02:22:25.000Z,88.5
2022-11-29T02:25:10.000Z,123.1
2022-11-29T02:27:55.000Z,105.8
2022-11-29T02:30:39.000Z,75.6
2022-11-29T02:33:24.000Z,102.4
2022-11-29T02:36:08.961Z,120.2
2022-11-29T02:37:26.000Z,77.4
2022-11-29T02:38:53.000Z,117
2022-11-29T02:41:38.000Z,112.9
2022-11-29T02:44:22.000Z,82.9
2022-11-29T02:47:07.000Z,96.1
2022-11-29T02:49:52.000Z,100
2022-11-29T02:52:36.000Z,95.4
2022-11-29T02:55:21.000Z,99
2022-11-29T02:58:06.000Z,80.5
2022-11-29T03:00:50.000Z,97.1
2022-11-29T03:03:35.000Z,184.3
2022-11-29T03:04:53.000Z,152.9
2022-11-29T03:06:20.000Z,123
2022-11-29T03:09:04.000Z,84.6
2022-11-29T03:11:49.000Z,119.5
2022-11-29T03:14:33.000Z,176.4
2022-11-29T03:17:18.000Z,154.8
2022-11-29T03:20:03.000Z,101.4
2022-11-29T03:22:47.000Z,118.6
2022-11-29T03:25:32.000Z,92.8
2022-11-29T03:28:17.000Z,130.5
2022-11-29T03:31:01.000Z,151.6
2022-11-29T03:32:19.000Z,228.4
2022-11-29T03:33:46.000Z,67
2022-11-29T03:36:31.000Z,39.7
2022-11-29T03:39:15.000Z,51
2022-11-29T03:42:00.000Z,60.7
2022-11-29T03:44:44.000Z,35.2
2022-11-29T03:47:29.000Z,51.6
2022-11-29T03:50:14.000Z,47.5
2022-11-29T03:52:58.000Z,109.4
2022-11-29T03:55:43.000Z,49.2
2022-11-29T03:58:28.000Z,58.3
2022-11-29T03:59:46.000Z,44.6
2022-11-29T04:01:12.000Z,46.1
2022-11-29T04:03:57.000Z,51
2022-11-29T04:06:42.000Z,63.1
2022-11-29T04:09:26.000Z,63
2022-11-29T04:12:11.000Z,61.9
2022-11-29T04:14:56.000Z,53.6
2022-11-29T04:17:40.000Z,37.3
2022-11-29T04:20:25.000Z,50.1
2022-11-29T04:23:09.000Z,49.9
2022-11-29T04:25:54.000Z,41.6
2022-11-29T04:27:12.000Z,45.5
2022-11-29T04:28:39.000Z,52.9
2022-11-29T04:31:23.000Z,33.5
2022-11-29T04:34:08.000Z,39.5
2022-11-29T04:36:53.000Z,43.3
2022-11-29T04:39:37.000Z,35.9
2022-11-29T04:42:22.000Z,33.3
2022-11-29T04:45:07.000Z,43.5
2022-11-29T04:47:51.000Z,33.7
2022-11-29T04:50:36.000Z,40.6
2022-11-29T04:53:20.000Z,28.8
2022-11-29T04:54:38.000Z,24.6
2022-11-29T04:56:05.000Z,29.3
2022-11-29T04:58:50.000Z,41.7
2022-11-29T05:01:34.000Z,46.9
2022-11-29T05:04:19.000Z,35
2022-11-29T05:07:04.000Z,37.8
2022-11-29T05:09:48.000Z,37.2
2022-11-29T05:12:33.000Z,40.6
2022-11-29T05:15:18.000Z,31.9
2022-11-29T05:18:02.000Z,41.9
2022-11-29T05:20:47.000Z,46.7
2022-11-29T05:22:05.000Z,40.1
2022-11-29T05:23:32.000Z,45.3
2022-11-29T05:26:16.000Z,45.5
2022-11-29T05:29:01.000Z,34.9
2022-11-29T05:31:45.000Z,43
2022-11-29T05:34:30.000Z,43.3
2022-11-29T05:37:15.000Z,57.8
2022-11-29T05:39:59.000Z,40.7
2022-11-29T05:42:44.000Z,55.5
2022-11-29T05:45:29.000Z,77.8
2022-11-29T05:48:13.000Z,61.6
2022-11-29T05:49:31.000Z,46.8
2022-11-29T05:50:58.000Z,33
2022-11-29T05:53:43.000Z,46.2
2022-11-29T05:56:27.000Z,28.2
2022-11-29T05:59:12.000Z,44.7
2022-11-29T06:01:57.000Z,35.9
2022-11-29T06:04:41.000Z,41.2
2022-11-29T06:07:26.000Z,24.8
2022-11-29T06:10:10.000Z,35.8
2022-11-29T06:12:55.000Z,29.4
2022-11-29T06:15:40.000Z,43.4
2022-11-29T06:16:58.000Z,30.4
2022-11-29T06:18:24.000Z,37.1
2022-11-29T06:21:09.000Z,38.6
2022-11-29T06:23:54.000Z,29.8
2022-11-29T06:26:38.000Z,29
2022-11-29T06:29:23.000Z,38.6
2022-11-29T06:32:08.000Z,33.1
2022-11-29T06:34:52.000Z,35.4
2022-11-29T06:37:37.000Z,46.6
2022-11-29T06:40:21.000Z,35.6
2022-11-29T06:43:06.000Z,37.9
2022-11-29T06:44:24.000Z,32.7
2022-11-29T06:45:51.000Z,45.4
2022-11-29T06:48:35.000Z,44.9
2022-11-29T06:51:20.000Z,29.9
2022-11-29T06:54:05.000Z,35.9
2022-11-29T06:56:49.000Z,50.7
2022-11-29T06:59:34.000Z,34.1
2022-11-29T07:02:19.000Z,31.5
2022-11-29T07:05:03.000Z,43
2022-11-29T07:07:48.000Z,47.8
2022-11-29T07:10:33.000Z,64.5
2022-11-29T07:11:50.000Z,47.4
2022-11-29T07:13:17.000Z,64
2022-11-29T07:16:02.000Z,36.9
2022-11-29T07:18:46.000Z,67
2022-11-29T07:21:31.000Z,34.6
2022-11-29T07:24:16.000Z,39
2022-11-29T07:27:00.000Z,59.9
2022-11-29T07:29:45.000Z,65.2
2022-11-29T07:32:30.000Z,91.8
2022-11-29T07:35:14.000Z,34.2
2022-11-29T07:37:59.000Z,62.4
2022-11-29T07:39:17.000Z,58.9
2022-11-29T07:40:44.000Z,45.9
2022-11-29T07:43:28.000Z,35.6
2022-11-29T07:46:13.000Z,71.5
2022-11-29T07:48:57.000Z,43.9
2022-11-29T07:51:42.000Z,44.2
2022-11-29T07:54:27.000Z,41.8
2022-11-29T07:57:11.000Z,61.6
2022-11-29T07:59:56.000Z,60.5
2022-11-29T08:02:41.000Z,57.7
2022-11-29T08:05:25.000Z,61.1
2022-11-29T08:06:43.000Z,54.5
2022-11-29T08:08:10.000Z,56.8
2022-11-29T08:10:55.000Z,84.8
2022-11-29T08:13:39.000Z,56
2022-11-29T08:16:24.000Z,52.2
2022-11-29T08:19:09.000Z,76.8
2022-11-29T08:21:53.000Z,91.5
2022-11-29T08:24:38.000Z,58.4
2022-11-29T08:27:22.000Z,90.8
2022-11-29T08:30:07.000Z,70.8
2022-11-29T08:32:52.000Z,58.4
2022-11-29T08:34:10.000Z,61.8
2022-11-29T08:35:37.000Z,63.3
2022-11-29T08:38:37.000Z,50.6
2022-11-29T08:41:22.000Z,74.7
2022-11-29T08:44:07.000Z,49.7
2022-11-29T08:46:51.000Z,61.3
2022-11-29T08:49:36.000Z,64.2
2022-11-29T08:52:21.000Z,83.5
2022-11-29T08:55:05.000Z,61.8
2022-11-29T08:57:50.000Z,67.5
2022-11-29T09:00:35.000Z,82.8
2022-11-29T09:01:52.000Z,77.9
2022-11-29T09:03:19.000Z,99.8
2022-11-29T09:06:04.000Z,78.8
2022-11-29T09:08:48.000Z,95
2022-11-29T09:11:33.000Z,60.9
2022-11-29T09:14:18.000Z,93.3
2022-11-29T09:17:02.000Z,83.9
2022-11-29T09:19:47.000Z,87.1
2022-11-29T09:22:32.000Z,99.2
2022-11-29T09:28:01.000Z,91.5
2022-11-29T09:29:19.000Z,82.3
2022-11-29T09:30:46.000Z,82.1
2022-11-29T09:33:30.000Z,110.1
2022-11-29T09:36:15.000Z,119.1
2022-11-29T09:38:59.000Z,88.1
2022-11-29T09:41:44.000Z,92.1
2022-11-29T09:44:29.000Z,109.6
2022-11-29T09:47:13.000Z,107.2
2022-11-29T09:49:58.000Z,124.6
2022-11-29T09:52:43.000Z,125.4
2022-11-29T09:55:27.000Z,120.7
2022-11-29T09:56:45.000Z,122.6
2022-11-29T10:00:57.000Z,126.5
2022-11-29T10:03:41.000Z,142.7
2022-11-29T10:06:26.000Z,135.5
2022-11-29T10:09:11.000Z,132.6
2022-11-29T10:11:55.000Z,126.5
2022-11-29T10:14:40.000Z,130.1
2022-11-29T10:17:24.000Z,139.6
2022-11-29T10:20:09.000Z,127.3
2022-11-29T10:22:54.000Z,136.8
2022-11-29T10:24:12.000Z,125.3
2022-11-29T10:25:38.000Z,133.5
2022-11-29T10:28:23.000Z,135.7
2022-11-29T10:31:08.000Z,118.5
2022-11-29T10:33:52.000Z,153.4
2022-11-29T10:36:37.000Z,140.6
2022-11-29T10:39:22.000Z,158.2
2022-11-29T10:42:06.000Z,144.5
2022-11-29T10:44:51.000Z,133.4
2022-11-29T10:47:36.000Z,152.7
2022-11-29T10:50:20.000Z,137.5
2022-11-29T10:51:38.000Z,140.3
2022-11-29T10:53:05.000Z,125.7
2022-11-29T10:55:49.000Z,154
2022-11-29T10:58:34.000Z,157.3
2022-11-29T11:01:19.000Z,164.3
2022-11-29T11:04:03.000Z,157.3
2022-11-29T11:06:48.000Z,143.5
2022-11-29T11:09:33.000Z,150.1
2022-11-29T11:12:17.000Z,158.4
2022-11-29T11:15:02.000Z,134
2022-11-29T11:17:47.000Z,167.3
2022-11-29T11:19:04.000Z,158
2022-11-29T11:20:31.000Z,179.4
2022-11-29T11:23:16.000Z,203.7
2022-11-29T11:26:00.000Z,177.7
2022-11-29T11:28:45.000Z,170.5
2022-11-29T11:31:30.000Z,177.1
2022-11-29T11:34:14.000Z,189.7
2022-11-29T11:36:59.000Z,181.6
2022-11-29T11:39:44.000Z,180.3
2022-11-29T11:42:28.000Z,159.2
2022-11-29T11:45:13.000Z,167.9
2022-11-29T11:46:31.000Z,132.3
2022-11-29T11:47:58.000Z,147.9
2022-11-29T11:50:42.000Z,132.3
2022-11-29T11:53:27.000Z,148.8
2022-11-29T11:56:12.000Z,139
2022-11-29T11:58:56.000Z,158.1
2022-11-29T12:01:41.000Z,137.3
2022-11-29T12:04:25.000Z,144.4
2022-11-29T12:07:10.000Z,155.6
2022-11-29T12:09:55.000Z,123.6
2022-11-29T12:12:39.000Z,133
2022-11-29T12:13:57.000Z,143.5
2022-11-29T12:15:24.000Z,136.1
2022-11-29T12:18:09.000Z,167.3
2022-11-29T12:20:53.000Z,161.9
2022-11-29T12:23:38.000Z,180.9
2022-11-29T12:26:23.000Z,143
2022-11-29T12:29:07.000Z,170.3
2022-11-29T12:31:52.000Z,180.5
2022-11-29T12:34:37.000Z,175.4
2022-11-29T12:37:21.000Z,151.6
2022-11-29T12:40:06.000Z,151.1
2022-11-29T12:41:24.000Z,185.8
2022-11-29T12:42:50.000Z,177.4
2022-11-29T12:45:35.000Z,163.7
2022-11-29T12:48:20.000Z,179.6
2022-11-29T12:51:04.000Z,172.7
2022-11-29T12:53:49.000Z,154.6
2022-11-29T12:56:34.000Z,164.9
2022-11-29T12:59:18.000Z,198.4
2022-11-29T13:02:03.000Z,177.5
2022-11-29T13:04:48.000Z,174.4
2022-11-29T13:07:32.000Z,153.5
2022-11-29T13:08:50.000Z,160
2022-11-29T13:10:17.000Z,160.3
2022-11-29T13:13:01.000Z,140.7
2022-11-29T13:15:46.000Z,171.4
2022-11-29T13:18:31.000Z,156.9
2022-11-29T13:21:15.000Z,180.4
2022-11-29T13:24:00.000Z,181.3
2022-11-29T13:26:45.000Z,167.9
2022-11-29T13:32:14.000Z,165.8
2022-11-29T13:34:59.000Z,167.2
2022-11-29T13:36:16.000Z,155.4
2022-11-29T13:37:43.000Z,159.5
2022-11-29T13:40:28.000Z,152.3
2022-11-29T13:43:13.000Z,167.5
2022-11-29T13:45:57.000Z,154.7
2022-11-29T13:48:42.000Z,137.4
2022-11-29T13:51:26.000Z,175.7
2022-11-29T13:54:11.000Z,114.7
2022-11-29T13:56:56.000Z,150.7
2022-11-29T13:59:40.000Z,135.4
2022-11-29T14:02:25.000Z,167.8
2022-11-29T14:03:43.000Z,153.5
2022-11-29T14:05:10.000Z,161.8
2022-11-29T14:07:54.000Z,152.4
2022-11-29T14:10:39.000Z,151.5
2022-11-29T14:13:24.000Z,148.3
2022-11-29T14:16:08.000Z,147.8
2022-11-29T14:18:53.000Z,152.2
2022-11-29T14:21:37.000Z,152.2
2022-11-29T14:24:22.000Z,138.1
2022-11-29T14:27:07.000Z,117.6
2022-11-29T14:29:51.000Z,97
2022-11-29T14:31:09.000Z,121.7
2022-11-29T14:32:36.000Z,145.4
2022-11-29T14:35:21.000Z,140.2
2022-11-29T14:38:05.000Z,127.3
2022-11-29T14:40:50.000Z,123.1
2022-11-29T14:43:35.000Z,126.8
2022-11-29T14:46:19.000Z,112.8
2022-11-29T14:49:04.000Z,114.9
2022-11-29T14:51:49.000Z,88.8
2022-11-29T14:54:33.000Z,107
2022-11-29T14:57:18.000Z,107.3
2022-11-29T14:58:36.000Z,102.3
2022-11-29T15:00:02.000Z,98.4
2022-11-29T15:05:32.000Z,105.8
2022-11-29T15:08:16.000Z,97.7
2022-11-29T15:11:01.000Z,116.8
2022-11-29T15:13:46.000Z,115.6
2022-11-29T15:16:30.000Z,114.8
2022-11-29T15:19:15.000Z,109.1
2022-11-29T15:22:00.000Z,116
2022-11-29T15:24:44.000Z,109.6
2022-11-29T15:27:29.000Z,104.2
2022-11-29T15:30:14.000Z,116.6
2022-11-29T15:32:58.000Z,108.8
2022-11-29T15:35:43.000Z,132
2022-11-29T15:38:27.000Z,107.6
2022-11-29T15:41:12.000Z,89.4
2022-11-29T15:43:57.000Z,104.3
2022-11-29T15:46:41.000Z,100.2
2022-11-29T15:49:26.000Z,95.7
2022-11-29T15:52:11.000Z,123.7
2022-11-29T15:53:29.000Z,132.2
2022-11-29T15:57:40.000Z,164.6
2022-11-29T16:00:25.000Z,168.8
2022-11-29T16:03:09.000Z,187.1
2022-11-29T16:05:54.000Z,159.9
2022-11-29T16:08:38.000Z,196.2
2022-11-29T16:11:23.000Z,177.3
2022-11-29T16:14:08.000Z,182.5
2022-11-29T16:16:52.000Z,155.9
2022-11-29T16:19:37.000Z,188
2022-11-29T16:20:55.000Z,203.6
2022-11-29T16:22:22.000Z,177.5
2022-11-29T16:25:06.000Z,180.1
2022-11-29T16:27:51.000Z,199.6
2022-11-29T16:30:36.000Z,178.1
2022-11-29T16:33:20.000Z,200.3
2022-11-29T16:36:05.000Z,196.5
2022-11-29T16:38:50.000Z,206.1
2022-11-29T16:41:34.000Z,171.3
2022-11-29T16:44:19.000Z,226.3
2022-11-29T16:47:03.942Z,187.3
2022-11-29T16:48:21.000Z,169.3
2022-11-29T16:49:48.000Z,216.7
2022-11-29T16:52:33.000Z,220.8
2022-11-29T16:55:17.000Z,194.5
2022-11-29T16:58:02.000Z,202.2
2022-11-29T17:01:03.000Z,211.7
2022-11-29T17:03:48.000Z,206
2022-11-29T17:06:32.000Z,189.9
2022-11-29T17:09:17.000Z,199.5
2022-11-29T17:12:02.000Z,179.2
2022-11-29T17:14:46.000Z,215.3
2022-11-29T17:16:04.000Z,209.1
2022-11-29T17:17:31.000Z,191
2022-11-29T17:20:16.000Z,229.3
2022-11-29T17:23:00.000Z,217.8
2022-11-29T17:25:45.000Z,211.3
2022-11-29T17:28:29.000Z,169.5
2022-11-29T17:31:14.000Z,187.1
2022-11-29T17:33:59.000Z,231
2022-11-29T17:36:43.000Z,210.5
2022-11-29T17:39:28.000Z,206.5
2022-11-29T17:42:13.000Z,197.7
2022-11-29T17:43:30.000Z,201.8
2022-11-29T17:44:57.000Z,230.5
2022-11-29T17:47:42.000Z,170.2
2022-11-29T17:50:27.000Z,167.4
2022-11-29T17:53:11.000Z,186
2022-11-29T17:55:56.000Z,205
2022-11-29T17:58:40.000Z,200.6
2022-11-29T18:01:25.000Z,213.2
2022-11-29T18:04:10.000Z,212.7
2022-11-29T18:06:54.000Z,195.9
2022-11-29T18:09:39.000Z,191.9
2022-11-29T18:10:57.000Z,222.4
2022-11-29T18:12:24.000Z,216
2022-11-29T18:15:08.000Z,196.7
2022-11-29T18:17:53.000Z,215.1
2022-11-29T18:20:38.000Z,212.3
2022-11-29T18:23:22.000Z,232.2
2022-11-29T18:26:07.000Z,233.5
2022-11-29T18:28:52.000Z,204.4
2022-11-29T18:31:36.000Z,209.2
2022-11-29T18:34:21.000Z,219.3
2022-11-29T18:37:05.000Z,213.1
2022-11-29T18:38:23.000Z,223.4
2022-11-29T18:39:50.000Z,206.9
2022-11-29T18:42:35.000Z,213.7
2022-11-29T18:45:19.000Z,233.2
2022-11-29T18:48:04.000Z,229
2022-11-29T18:50:49.000Z,235.5
2022-11-29T18:53:33.000Z,206.9
2022-11-29T18:56:18.000Z,226.3
2022-11-29T18:59:03.000Z,220.6
2022-11-29T19:01:47.000Z,170.4
2022-11-29T19:04:32.000Z,224.1
2022-11-29T19:05:50.000Z,190.2
2022-11-29T19:07:16.000Z,220.1
2022-11-29T19:10:01.000Z,228
2022-11-29T19:12:46.000Z,238.3
2022-11-29T19:15:30.000Z,215.4
2022-11-29T19:18:15.000Z,254.6
2022-11-29T19:23:44.000Z,212.5
2022-11-29T19:26:29.000Z,209.9
2022-11-29T19:29:14.000Z,206.4
2022-11-29T19:31:58.000Z,235.2
2022-11-29T19:33:16.000Z,196.3
2022-11-29T19:34:43.000Z,226.4
2022-11-29T19:37:28.000Z,235.3
2022-11-29T19:40:12.000Z,205.1
2022-11-29T19:42:57.000Z,216.2
2022-11-29T19:45:41.000Z,181.8
2022-11-29T19:48:26.000Z,232.6
2022-11-29T19:51:11.000Z,189.6
2022-11-29T19:53:55.000Z,188.6
2022-11-29T19:56:40.000Z,166.1
2022-11-29T19:59:25.000Z,167.9
2022-11-29T20:00:42.000Z,126.3
2022-11-29T20:02:09.000Z,206.9
2022-11-29T20:04:54.000Z,172.8
2022-11-29T20:07:39.000Z,215
2022-11-29T20:10:23.000Z,219.1
2022-11-29T20:13:08.000Z,203.7
2022-11-29T20:15:53.000Z,229.2
2022-11-29T20:18:37.000Z,234.5
2022-11-29T20:21:22.000Z,232.2
2022-11-29T20:24:06.000Z,239.5
2022-11-29T20:26:51.000Z,284
2022-11-29T20:28:09.000Z,165.3
2022-11-29T20:29:36.000Z,200.6
2022-11-29T20:32:20.000Z,238.2
2022-11-29T20:35:05.000Z,207.2
2022-11-29T20:37:50.000Z,217
2022-11-29T20:40:34.000Z,235.5
2022-11-29T20:43:19.000Z,199.3
2022-11-29T20:46:04.000Z,234.8
2022-11-29T20:48:48.000Z,200
2022-11-29T20:51:33.000Z,214.6
2022-11-29T20:54:17.000Z,235.6
2022-11-29T20:55:35.000Z,256.2
2022-11-29T20:57:02.000Z,233.9
2022-11-29T20:59:47.000Z,196.9
2022-11-29T21:02:31.000Z,219.4
2022-11-29T21:05:16.000Z,223.6
2022-11-29T21:08:01.000Z,199.9
2022-11-29T21:10:45.000Z,171.9
2022-11-29T21:13:30.000Z,225.1
2022-11-29T21:16:15.000Z,195
2022-11-29T21:18:59.000Z,238.6
2022-11-29T21:21:44.000Z,207.1
2022-11-29T21:23:02.000Z,224
2022-11-29T21:24:29.000Z,183.4
2022-11-29T21:27:13.000Z,200.9
2022-11-29T21:29:58.000Z,206.5
2022-11-29T21:32:42.000Z,178.4
2022-11-29T21:35:27.000Z,182.9
2022-11-29T21:38:12.000Z,194.9
2022-11-29T21:40:56.000Z,192.4
2022-11-29T21:43:41.000Z,181.1
2022-11-29T21:46:26.000Z,143.9
2022-11-29T21:49:10.000Z,191.6
2022-11-29T21:50:28.000Z,214.9
2022-11-29T21:51:55.000Z,217.2
2022-11-29T21:54:40.000Z,234.8
2022-11-29T21:57:24.000Z,239.2
2022-11-29T22:00:09.000Z,199.4
2022-11-29T22:02:53.000Z,176.2
2022-11-29T22:05:38.000Z,188
2022-11-29T22:08:23.000Z,226.3
2022-11-29T22:11:07.000Z,193.5
2022-11-29T22:13:52.000Z,173.2
2022-11-29T22:16:37.000Z,133.9
2022-11-29T22:17:55.000Z,167.6
2022-11-29T22:19:21.000Z,160.3
2022-11-29T22:22:06.000Z,178.3
2022-11-29T22:24:51.000Z,179
2022-11-29T22:27:35.000Z,132.4
2022-11-29T22:30:20.000Z,201.4
2022-11-29T22:33:05.000Z,189
2022-11-29T22:35:49.000Z,198.2
2022-11-29T22:38:34.000Z,147.3
2022-11-29T22:41:18.000Z,110.2
2022-11-29T22:44:03.000Z,156.4
2022-11-29T22:45:21.000Z,131
2022-11-29T22:46:48.000Z,118.4
2022-11-29T22:49:32.000Z,137.5
2022-11-29T22:52:17.000Z,126.2
2022-11-29T22:55:02.000Z,100.7
2022-11-29T22:57:46.000Z,117.1
2022-11-29T23:00:31.000Z,89.4
2022-11-29T23:03:16.000Z,99.9
2022-11-29T23:06:00.000Z,114.6
2022-11-29T23:08:45.000Z,106.4
2022-11-29T23:11:30.000Z,121.1
2022-11-29T23:12:47.000Z,107.7
2022-11-29T23:14:14.000Z,117.4
2022-11-29T23:16:59.000Z,87
2022-11-29T23:19:43.000Z,122.9
2022-11-29T23:22:28.000Z,81.7
2022-11-29T23:25:13.000Z,101.4
2022-11-29T23:27:57.000Z,99.7
2022-11-29T23:30:42.000Z,107.2
2022-11-29T23:33:27.000Z,68.6
2022-11-29T23:36:11.000Z,70.2
2022-11-29T23:38:56.000Z,95.8
2022-11-29T23:40:14.000Z,110
2022-11-29T23:41:41.000Z,103.6
2022-11-29T23:44:25.000Z,95
2022-11-29T23:47:10.000Z,116
2022-11-29T23:49:54.000Z,116.3
2022-11-29T23:52:39.000Z,101.6
2022-11-29T23:55:24.000Z,92.4
2022-11-29T23:58:08.000Z,93
